createdAt,value
2019-01-25T00:04:01.461Z,18.40
2019-01-25T00:06:50.294Z,18.10
2019-01-25T00:09:39.126Z,19.50
2019-01-25T00:12:27.991Z,17.30
2019-01-25T00:15:16.846Z,18.40
2019-01-25T00:18:06.024Z,19.17
2019-01-25T00:20:55.930Z,17.00
2019-01-25T00:23:45.501Z,18.40
2019-01-25T00:26:34.345Z,18.35
2019-01-25T00:29:23.188Z,18.10
2019-01-25T00:32:12.066Z,16.17
2019-01-25T00:35:00.921Z,16.47
2019-01-25T00:37:49.731Z,17.47
2019-01-25T00:40:38.596Z,18.50
2019-01-25T00:46:36.812Z,16.90
2019-01-25T00:49:26.000Z,18.00
2019-01-25T00:52:14.831Z,17.60
2019-01-25T00:58:32.143Z,18.70
2019-01-25T01:01:21.031Z,17.33
2019-01-25T01:04:09.943Z,17.13
2019-01-25T01:06:52.134Z,18.33
2019-01-25T01:09:40.955Z,17.13
2019-01-25T01:12:29.856Z,16.33
2019-01-25T01:15:39.575Z,17.27
2019-01-25T01:18:28.479Z,19.30
2019-01-25T01:21:17.363Z,18.00
2019-01-25T01:24:06.356Z,18.02
2019-01-25T01:26:55.233Z,19.52
2019-01-25T01:29:44.135Z,18.03
2019-01-25T01:32:33.029Z,17.67
2019-01-25T01:35:21.925Z,18.43
2019-01-25T01:38:10.847Z,18.97
2019-01-25T01:40:59.730Z,19.23
2019-01-25T01:43:48.576Z,17.37
2019-01-25T01:46:37.486Z,16.77
2019-01-25T01:49:26.365Z,17.87
2019-01-25T01:52:15.216Z,17.77
2019-01-25T01:58:00.114Z,17.37
2019-01-25T02:00:49.041Z,16.87
2019-01-25T02:03:37.889Z,18.27
2019-01-25T02:06:19.805Z,18.70
2019-01-25T02:09:08.801Z,18.00
2019-01-25T02:15:33.372Z,20.15
2019-01-25T02:18:22.211Z,19.35
2019-01-25T02:21:11.100Z,18.60
2019-01-25T02:24:00.024Z,19.17
2019-01-25T02:26:48.891Z,19.13
2019-01-25T02:29:37.740Z,18.70
2019-01-25T02:32:26.741Z,18.57
2019-01-25T02:35:15.748Z,18.73
2019-01-25T02:38:04.651Z,16.30
2019-01-25T02:40:53.487Z,18.37
2019-01-25T02:43:42.315Z,18.62
2019-01-25T02:46:31.176Z,16.97
2019-01-25T02:49:19.991Z,17.23
2019-01-25T02:52:08.839Z,17.00
2019-01-25T02:54:57.722Z,16.03
2019-01-25T02:57:46.821Z,18.40
2019-01-25T03:00:35.649Z,17.77
2019-01-25T03:03:24.482Z,17.23
2019-01-25T03:06:06.591Z,18.67
2019-01-25T03:08:55.401Z,18.77
2019-01-25T03:11:44.231Z,18.33
2019-01-25T03:14:33.054Z,19.95
2019-01-25T03:17:21.881Z,18.80
2019-01-25T03:20:31.611Z,17.23
2019-01-25T03:23:20.468Z,18.20
2019-01-25T03:26:09.380Z,18.90
2019-01-25T03:28:58.194Z,17.15
2019-01-25T03:31:47.082Z,18.40
2019-01-25T03:34:35.947Z,17.62
2019-01-25T03:37:24.763Z,19.40
2019-01-25T03:40:34.529Z,18.80
2019-01-25T03:43:23.425Z,19.07
2019-01-25T03:46:12.404Z,19.53
2019-01-25T03:49:01.243Z,19.10
2019-01-25T03:51:50.049Z,18.53
2019-01-25T03:54:39.005Z,18.03
2019-01-25T03:57:27.866Z,18.63
2019-01-25T04:00:37.689Z,20.62
2019-01-25T04:03:26.519Z,20.33
2019-01-25T04:06:15.366Z,17.83
2019-01-25T04:08:57.052Z,18.27
2019-01-25T04:11:46.008Z,19.47
2019-01-25T04:14:34.920Z,17.63
2019-01-25T04:17:23.729Z,19.23
2019-01-25T04:20:33.485Z,18.10
2019-01-25T04:23:22.320Z,17.47
2019-01-25T04:26:11.139Z,18.73
2019-01-25T04:28:59.991Z,18.03
2019-01-25T04:31:48.838Z,17.60
2019-01-25T04:34:37.681Z,18.53
2019-01-25T04:37:26.509Z,17.03
2019-01-25T04:40:36.282Z,21.17
2019-01-25T04:43:18.041Z,19.23
2019-01-25T04:46:07.001Z,19.33
2019-01-25T04:48:55.814Z,19.67
2019-01-25T04:51:44.650Z,19.03
2019-01-25T04:54:33.520Z,18.53
2019-01-25T04:57:22.350Z,19.27
2019-01-25T05:00:32.103Z,17.70
2019-01-25T05:03:14.379Z,19.17
2019-01-25T05:06:03.293Z,19.70
2019-01-25T05:08:52.122Z,20.33
2019-01-25T05:11:33.779Z,18.97
2019-01-25T05:14:22.614Z,17.93
2019-01-25T05:17:11.459Z,18.20
2019-01-25T05:20:00.393Z,20.90
2019-01-25T05:23:10.143Z,18.93
2019-01-25T05:25:58.934Z,20.93
2019-01-25T05:28:47.828Z,18.57
2019-01-25T05:31:36.700Z,18.77
2019-01-25T05:34:25.547Z,19.57
2019-01-25T05:37:14.426Z,16.83
2019-01-25T05:40:03.511Z,19.80
2019-01-25T05:42:52.472Z,19.27
2019-01-25T05:46:00.658Z,17.73
2019-01-25T05:48:49.462Z,18.43
2019-01-25T05:51:38.318Z,17.83
2019-01-25T05:54:27.128Z,19.20
2019-01-25T05:57:15.969Z,21.30
2019-01-25T06:00:44.730Z,19.13
2019-01-25T06:03:33.572Z,17.13
2019-01-25T06:06:14.893Z,19.53
2019-01-25T06:12:18.993Z,17.37
2019-01-25T06:15:28.710Z,19.67
2019-01-25T06:18:17.552Z,18.60
2019-01-25T06:21:06.472Z,16.60
2019-01-25T06:23:55.526Z,19.27
2019-01-25T06:27:05.246Z,18.20
2019-01-25T06:29:54.184Z,17.57
2019-01-25T06:32:43.075Z,17.73
2019-01-25T06:35:31.913Z,19.70
2019-01-25T06:38:01.408Z,18.93
2019-01-25T06:40:50.251Z,21.80
2019-01-25T06:43:39.056Z,20.20
2019-01-25T06:46:27.974Z,19.63
2019-01-25T06:49:16.826Z,20.37
2019-01-25T06:52:06.002Z,22.60
2019-01-25T06:54:56.536Z,21.27
2019-01-25T07:01:03.803Z,21.90
2019-01-25T07:03:52.676Z,19.67
2019-01-25T07:06:41.506Z,21.37
2019-01-25T07:09:30.432Z,19.93
2019-01-25T07:12:19.276Z,20.70
2019-01-25T07:15:29.008Z,19.90
2019-01-25T07:18:17.863Z,21.00
2019-01-25T07:21:06.742Z,20.70
2019-01-25T07:23:55.658Z,21.93
2019-01-25T07:26:44.465Z,20.17
2019-01-25T07:29:33.382Z,20.23
2019-01-25T07:32:22.235Z,20.57
2019-01-25T07:35:11.552Z,21.03
2019-01-25T07:38:00.407Z,19.30
2019-01-25T07:40:49.348Z,20.50
2019-01-25T07:43:38.224Z,22.10
2019-01-25T07:46:27.009Z,20.27
2019-01-25T07:49:16.033Z,21.13
2019-01-25T07:52:05.313Z,20.37
2019-01-25T07:54:54.209Z,21.60
2019-01-25T08:01:11.528Z,21.00
2019-01-25T08:04:00.472Z,20.33
2019-01-25T08:06:49.481Z,20.80
2019-01-25T08:09:38.356Z,20.73
2019-01-25T08:12:27.198Z,22.33
2019-01-25T08:15:35.336Z,20.83
2019-01-25T08:18:24.178Z,21.23
2019-01-25T08:20:53.644Z,22.33
2019-01-25T08:23:42.480Z,21.30
2019-01-25T08:26:31.390Z,20.37
2019-01-25T08:29:27.708Z,22.57
2019-01-25T08:32:10.933Z,22.80
2019-01-25T08:34:40.497Z,20.27
2019-01-25T08:37:29.350Z,21.17
2019-01-25T08:40:18.742Z,23.37
2019-01-25T08:43:08.925Z,23.77
2019-01-25T08:45:58.345Z,21.83
2019-01-25T08:48:47.224Z,24.23
2019-01-25T08:51:36.595Z,22.67
2019-01-25T08:54:25.749Z,21.57
2019-01-25T08:57:08.541Z,20.83
2019-01-25T08:59:57.516Z,22.13
2019-01-25T09:02:46.384Z,23.50
2019-01-25T09:05:35.241Z,22.13
2019-01-25T09:08:24.170Z,23.20
2019-01-25T09:11:13.096Z,21.20
2019-01-25T09:13:42.558Z,21.27
2019-01-25T09:16:31.387Z,23.00
2019-01-25T09:19:00.928Z,21.37
2019-01-25T09:21:49.794Z,21.30
2019-01-25T09:24:38.672Z,21.60
2019-01-25T09:27:27.584Z,22.23
2019-01-25T09:30:38.154Z,21.63
2019-01-25T09:33:27.027Z,21.17
2019-01-25T09:35:56.555Z,23.33
2019-01-25T09:38:26.144Z,29.43
2019-01-25T09:40:55.803Z,24.33
2019-01-25T09:43:25.278Z,25.67
2019-01-25T09:45:54.869Z,24.40
2019-01-25T09:48:24.358Z,25.27
2019-01-25T09:51:13.243Z,24.57
2019-01-25T09:54:02.058Z,23.47
2019-01-25T09:56:50.894Z,22.87
2019-01-25T09:59:39.711Z,21.53
2019-01-25T10:02:28.563Z,22.30
2019-01-25T10:05:17.483Z,20.87
2019-01-25T10:08:06.404Z,21.30
2019-01-25T10:10:48.081Z,19.63
2019-01-25T10:13:36.929Z,21.53
2019-01-25T10:16:25.770Z,21.27
2019-01-25T10:19:14.626Z,20.53
2019-01-25T10:22:03.492Z,22.70
2019-01-25T10:24:52.334Z,23.37
2019-01-25T10:27:41.290Z,23.10
2019-01-25T10:30:30.349Z,24.90
2019-01-25T10:33:19.136Z,21.43
2019-01-25T10:36:08.065Z,24.33
2019-01-25T10:38:56.885Z,23.73
2019-01-25T10:41:26.375Z,21.97
2019-01-25T10:44:15.191Z,23.30
2019-01-25T10:47:04.290Z,22.77
2019-01-25T10:49:53.103Z,22.43
2019-01-25T10:52:42.038Z,23.93
2019-01-25T10:55:31.004Z,22.83
2019-01-25T10:58:19.562Z,23.70
2019-01-25T11:01:08.385Z,23.93
2019-01-25T11:03:57.294Z,22.70
2019-01-25T11:06:46.165Z,24.70
2019-01-25T11:09:37.999Z,24.80
2019-01-25T11:12:16.205Z,21.63
2019-01-25T11:15:25.980Z,23.53
2019-01-25T11:18:14.784Z,22.20
2019-01-25T11:21:03.643Z,24.83
2019-01-25T11:23:52.494Z,21.90
2019-01-25T11:26:41.367Z,24.07
2019-01-25T11:29:30.213Z,21.83
2019-01-25T11:32:19.158Z,23.87
2019-01-25T11:35:08.157Z,23.03
2019-01-25T11:37:57.119Z,20.43
2019-01-25T11:40:46.088Z,23.43
2019-01-25T11:43:34.944Z,21.50
2019-01-25T11:46:23.834Z,21.27
2019-01-25T11:48:53.338Z,21.10
2019-01-25T11:51:42.199Z,22.00
2019-01-25T11:54:38.052Z,20.17
2019-01-25T11:57:26.908Z,22.13
2019-01-25T12:00:36.110Z,21.13
2019-01-25T12:03:25.037Z,19.13
2019-01-25T12:06:13.852Z,21.30
2019-01-25T12:09:02.960Z,19.20
2019-01-25T12:11:51.878Z,20.73
2019-01-25T12:14:40.720Z,19.77
2019-01-25T12:17:29.695Z,20.57
2019-01-25T12:20:39.492Z,19.77
2019-01-25T12:23:28.309Z,18.17
2019-01-25T12:26:17.243Z,17.80
2019-01-25T12:29:06.205Z,18.20
2019-01-25T12:31:55.051Z,16.73
2019-01-25T12:34:43.859Z,18.03
2019-01-25T12:37:34.421Z,19.97
2019-01-25T12:40:23.268Z,18.63
2019-01-25T12:43:12.150Z,18.40
2019-01-25T12:45:41.729Z,17.23
2019-01-25T12:48:30.533Z,18.03
2019-01-25T12:51:19.957Z,17.30
2019-01-25T12:54:08.816Z,15.40
2019-01-25T12:56:57.653Z,15.77
2019-01-25T12:59:46.464Z,16.47
2019-01-25T13:02:35.525Z,15.50
2019-01-25T13:05:24.594Z,13.30
2019-01-25T13:08:13.460Z,15.40
2019-01-25T13:10:54.718Z,15.33
2019-01-25T13:13:43.572Z,14.60
2019-01-25T13:16:32.453Z,13.90
2019-01-25T13:19:21.353Z,13.70
2019-01-25T13:22:10.244Z,15.23
2019-01-25T13:24:59.105Z,13.73
2019-01-25T13:27:48.085Z,11.77
2019-01-25T13:30:37.006Z,13.53
2019-01-25T13:33:25.887Z,12.87
2019-01-25T13:36:14.917Z,12.30
2019-01-25T13:42:18.644Z,11.40
2019-01-25T13:45:28.396Z,13.17
2019-01-25T13:48:17.283Z,11.67
2019-01-25T13:51:06.189Z,12.20
2019-01-25T13:53:55.018Z,11.53
2019-01-25T13:56:43.865Z,12.40
2019-01-25T13:59:32.810Z,11.60
2019-01-25T14:02:21.672Z,12.47
2019-01-25T14:05:10.614Z,13.67
2019-01-25T14:07:52.453Z,11.60
2019-01-25T14:10:41.355Z,12.57
2019-01-25T14:13:34.183Z,13.73
2019-01-25T14:16:20.824Z,16.23
2019-01-25T14:19:09.667Z,14.77
2019-01-25T14:21:58.484Z,13.03
2019-01-25T14:24:47.352Z,13.53
2019-01-25T14:27:36.204Z,12.70
2019-01-25T14:30:45.950Z,13.03
2019-01-25T14:33:34.767Z,12.37
2019-01-25T14:36:23.664Z,11.80
2019-01-25T14:39:12.509Z,11.80
2019-01-25T14:42:01.366Z,13.60
2019-01-25T14:44:50.223Z,12.73
2019-01-25T14:47:39.110Z,12.80
2019-01-25T14:50:48.873Z,12.53
2019-01-25T14:53:37.711Z,12.30
2019-01-25T14:56:26.605Z,13.03
2019-01-25T14:59:08.583Z,13.00
2019-01-25T15:01:57.434Z,12.57
2019-01-25T15:04:46.281Z,12.70
2019-01-25T15:07:35.202Z,12.57
2019-01-25T15:10:44.930Z,12.30
2019-01-25T15:13:33.835Z,13.17
2019-01-25T15:16:22.738Z,14.10
2019-01-25T15:19:11.637Z,12.63
2019-01-25T15:22:00.555Z,11.97
2019-01-25T15:24:49.493Z,13.80
2019-01-25T15:27:38.412Z,14.30
2019-01-25T15:30:48.190Z,12.73
2019-01-25T15:33:37.066Z,14.33
2019-01-25T15:36:25.861Z,13.57
2019-01-25T15:39:08.023Z,12.70
2019-01-25T15:41:56.944Z,13.33
2019-01-25T15:44:45.856Z,13.37
2019-01-25T15:47:34.753Z,13.63
2019-01-25T15:50:42.908Z,13.50
2019-01-25T15:53:31.762Z,12.43
2019-01-25T15:56:20.610Z,12.33
2019-01-25T15:59:09.456Z,11.50
2019-01-25T16:01:58.394Z,10.20
2019-01-25T16:04:47.240Z,9.53
2019-01-25T16:07:36.052Z,9.60
2019-01-25T16:10:19.076Z,7.80
2019-01-25T16:13:07.962Z,8.13
2019-01-25T16:15:56.878Z,6.50
2019-01-25T16:18:45.348Z,6.77
2019-01-25T16:21:34.308Z,6.07
2019-01-25T16:24:44.055Z,5.70
2019-01-25T16:27:32.872Z,5.20
2019-01-25T16:30:41.108Z,5.23
2019-01-25T16:33:29.962Z,5.63
2019-01-25T16:36:18.829Z,5.30
2019-01-25T16:38:48.435Z,4.17
2019-01-25T16:41:37.285Z,4.60
2019-01-25T16:44:26.201Z,4.90
2019-01-25T16:47:15.025Z,4.80
2019-01-25T16:53:18.949Z,4.33
2019-01-25T16:55:48.478Z,4.90
2019-01-25T16:58:37.314Z,4.80
2019-01-25T17:01:26.168Z,4.40
2019-01-25T17:04:15.003Z,4.90
2019-01-25T17:07:03.853Z,5.30
2019-01-25T17:09:52.728Z,5.73
2019-01-25T17:12:34.858Z,4.80
2019-01-25T17:15:23.867Z,4.27
2019-01-25T17:18:12.776Z,4.93
2019-01-25T17:21:01.665Z,4.53
2019-01-25T17:23:50.593Z,5.30
2019-01-25T17:26:39.567Z,5.47
2019-01-25T17:29:28.422Z,5.53
2019-01-25T17:32:17.345Z,4.83
2019-01-25T17:34:46.912Z,5.10
2019-01-25T17:37:35.788Z,5.13
2019-01-25T17:40:46.822Z,4.90
2019-01-25T17:43:34.680Z,4.90
2019-01-25T17:46:23.539Z,4.90
2019-01-25T17:49:12.354Z,5.97
2019-01-25T17:52:01.232Z,5.90
2019-01-25T17:54:50.236Z,6.57
2019-01-25T17:57:39.141Z,5.97
2019-01-25T18:03:44.819Z,5.53
2019-01-25T18:06:33.728Z,6.23
2019-01-25T18:09:22.618Z,6.10
2019-01-25T18:12:04.291Z,6.83
2019-01-25T18:14:53.205Z,6.40
2019-01-25T18:17:42.142Z,7.70
2019-01-25T18:20:31.031Z,6.47
2019-01-25T18:23:20.027Z,6.07
2019-01-25T18:26:08.939Z,7.70
2019-01-25T18:28:57.847Z,6.87
2019-01-25T18:31:46.654Z,6.90
2019-01-25T18:34:35.631Z,7.73
2019-01-25T18:37:24.513Z,6.77
2019-01-25T18:40:13.511Z,7.93
2019-01-25T18:43:02.413Z,7.43
2019-01-25T18:45:51.301Z,7.83
2019-01-25T18:48:40.153Z,7.20
2019-01-25T18:51:29.038Z,7.53
2019-01-25T18:54:17.838Z,7.77
2019-01-25T18:57:06.437Z,7.07
2019-01-25T18:59:55.314Z,7.10
2019-01-25T19:02:24.835Z,6.63
2019-01-25T19:05:13.868Z,7.23
2019-01-25T19:08:02.791Z,7.60
2019-01-25T19:10:51.760Z,7.53
2019-01-25T19:13:33.534Z,6.53
2019-01-25T19:16:22.482Z,7.07
2019-01-25T19:19:11.461Z,6.73
2019-01-25T19:22:00.234Z,6.47
2019-01-25T19:24:49.168Z,7.27
2019-01-25T19:27:38.001Z,6.20
2019-01-25T19:30:47.783Z,6.00
2019-01-25T19:33:36.720Z,6.50
2019-01-25T19:36:25.589Z,6.33
2019-01-25T19:39:14.493Z,6.37
2019-01-25T19:42:03.439Z,7.43
2019-01-25T19:44:52.334Z,6.17
2019-01-25T19:47:41.266Z,6.57
2019-01-25T19:50:30.195Z,6.10
2019-01-25T19:53:19.152Z,6.43
2019-01-25T19:56:08.135Z,6.70
2019-01-25T19:58:57.095Z,6.13
2019-01-25T20:01:45.905Z,5.80
2019-01-25T20:04:34.752Z,6.03
2019-01-25T20:07:23.660Z,6.90
2019-01-25T20:10:13.019Z,6.90
2019-01-25T20:12:54.729Z,6.17
2019-01-25T20:15:43.750Z,6.67
2019-01-25T20:18:32.596Z,6.70
2019-01-25T20:21:21.428Z,5.73
2019-01-25T20:24:10.351Z,6.00
2019-01-25T20:26:59.154Z,6.50
2019-01-25T20:29:48.096Z,5.97
2019-01-25T20:32:36.902Z,5.60
2019-01-25T20:35:46.680Z,6.27
2019-01-25T20:38:35.576Z,5.37
2019-01-25T20:41:24.470Z,5.93
2019-01-25T20:44:13.408Z,6.00
2019-01-25T20:47:02.318Z,6.07
2019-01-25T20:49:51.143Z,5.10
2019-01-25T20:52:40.052Z,6.27
2019-01-25T20:55:29.061Z,5.70
2019-01-25T20:58:17.938Z,4.90
2019-01-25T21:01:06.839Z,5.93
2019-01-25T21:03:55.789Z,5.67
2019-01-25T21:06:44.667Z,6.63
2019-01-25T21:09:33.559Z,5.07
2019-01-25T21:12:22.495Z,4.97
2019-01-25T21:15:05.414Z,5.90
2019-01-25T21:17:54.593Z,6.20
2019-01-25T21:21:04.388Z,5.70
2019-01-25T21:23:53.345Z,5.73
2019-01-25T21:26:42.195Z,5.67
2019-01-25T21:29:31.147Z,5.50
2019-01-25T21:32:20.008Z,6.10
2019-01-25T21:35:29.757Z,5.23
2019-01-25T21:38:18.642Z,5.30
2019-01-25T21:41:07.564Z,4.73
2019-01-25T21:43:56.382Z,5.30
2019-01-25T21:46:45.297Z,5.20
2019-01-25T21:49:34.126Z,5.23
2019-01-25T21:52:23.052Z,5.43
2019-01-25T21:55:32.807Z,5.30
2019-01-25T21:58:21.648Z,5.10
2019-01-25T22:01:10.715Z,4.77
2019-01-25T22:03:59.555Z,5.03
2019-01-25T22:06:48.469Z,3.43
2019-01-25T22:09:37.319Z,4.57
2019-01-25T22:12:26.242Z,4.50
2019-01-25T22:15:08.915Z,3.73
2019-01-25T22:17:57.819Z,4.50
2019-01-25T22:20:46.622Z,5.10
2019-01-25T22:23:35.549Z,4.40
2019-01-25T22:26:24.352Z,4.57
2019-01-25T22:29:13.337Z,4.23
2019-01-25T22:32:02.145Z,4.20
2019-01-25T22:34:51.070Z,4.30
2019-01-25T22:37:39.944Z,3.83
2019-01-25T22:43:44.837Z,4.03
2019-01-25T22:46:33.717Z,4.07
2019-01-25T22:49:22.643Z,4.70
2019-01-25T22:52:11.513Z,4.73
2019-01-25T22:55:00.424Z,4.10
2019-01-25T22:57:49.411Z,4.03
2019-01-25T23:04:29.450Z,3.90
2019-01-25T23:07:18.327Z,3.23
2019-01-25T23:10:28.089Z,3.70
2019-01-25T23:13:09.842Z,3.77
2019-01-25T23:15:49.739Z,3.47
2019-01-25T23:18:38.597Z,4.30
2019-01-25T23:21:27.502Z,3.67
2019-01-25T23:24:16.321Z,4.10
2019-01-25T23:27:05.232Z,3.80
2019-01-25T23:29:54.126Z,4.00
2019-01-25T23:32:43.001Z,3.80
2019-01-25T23:35:31.927Z,3.73
2019-01-25T23:38:20.786Z,3.70
2019-01-25T23:40:50.278Z,3.57
2019-01-25T23:43:39.148Z,3.53
2019-01-25T23:46:28.081Z,3.50
2019-01-25T23:49:16.918Z,3.90
2019-01-25T23:52:05.845Z,3.77
2019-01-25T23:54:54.734Z,3.20
2019-01-25T23:57:43.693Z,3.77
